KCNW/CNW METAR and TAF weather

Enter ICAO airport designator
Station Type Date Time Source
KCNW METAR 2022/01/27 22:55 UTC NOAA

KCNW 272255Z 02005KT 10SM SKC 13/02 A3022


Station Type Date Time Source
KCNW Decoded METAR 2022/01/27 22:55 UTC NOAA

Station name not available
Jan 27, 2022 - 05:55 PM EST / 2022.01.27 2255 UTC
Wind: from the NNE (020 degrees) at 6 MPH (5 KT):0
Visibility: 10 mile(s):0
Sky conditions: clear
Temperature: 55 F (13 C)
Dew Point: 35 F (2 C)
Relative Humidity: 47%
Pressure (altimeter): 30.22 in. Hg (1023 hPa)
ob: KCNW 272255Z 02005KT 10SM SKC 13/02 A3022
cycle: 23

Station Type Date Time Source
KCNW TAF UTC NOAA

Error!

Example: see airport list